Time;durP1;ratioP1;P1;durP2;ratioP2;P2;SDS_P1;SDS_P2;PMS_P1;PMS_P2;Temp;Humidity;BMP_temperature;BMP_pressure;BME280_temperature;BME280_humidity;BME280_pressure;Samples;Min_cycle;Max_cycle;Signal;HPM_P1;HPM_P2
2021/06/28 00:02:04;;;;;;;;;;;;;;;21.47;67.59;100133.38;5004262;28;19929;-80
2021/06/28 00:04:31;;;;;;;;;;;;;;;21.44;67.59;100125.69;5003809;28;19929;-79
2021/06/28 00:06:58;;;;;;;;;;;;;;;21.44;67.70;100131.34;5004044;28;19922;-80
2021/06/28 00:09:25;;;;;;;;;;;;;;;21.52;67.33;100128.53;5003264;28;19922;-80
2021/06/28 00:11:53;;;;;;;;;;;;;;;21.48;67.39;100132.19;5002208;28;19922;-80
2021/06/28 00:14:20;;;;;;;;;;;;;;;21.48;67.43;100125.69;5002243;28;20389;-79
2021/06/28 00:16:48;;;;;;;;;;;;;;;21.44;67.95;100122.00;5003739;28;20367;-79
2021/06/28 00:19:14;;;;;;;;;;;;;;;21.43;68.21;100131.75;5003098;28;19921;-79
2021/06/28 00:21:41;;;;;;;;;;;;;;;21.45;68.32;100143.50;5003082;28;19921;-81
2021/06/28 00:24:09;;;;;;;;;;;;;;;21.48;68.33;100148.34;5002925;28;19921;-80
2021/06/28 00:26:36;;;;;;;;;;;;;;;21.49;68.26;100155.66;5002711;28;20271;-80
2021/06/28 00:29:05;;;;;;;;;;;;;;;21.36;68.96;100160.03;5001758;28;19921;-80
2021/06/28 00:31:32;;;;;;;;;;;;;;;21.42;69.08;100152.81;5002002;28;19921;-79
2021/06/28 00:34:01;;;;;;;;;;;;;;;21.44;69.42;100151.19;5001319;28;19921;-80
2021/06/28 00:36:28;;;;;;;;;;;;;;;21.40;69.81;100135.34;5001398;28;19922;-80
2021/06/28 00:38:55;;;;;;;;;;;;;;;21.36;69.96;100124.00;5000974;28;19922;-80
2021/06/28 00:41:22;;;;;;;;;;;;;;;21.30;70.16;100114.25;5001536;28;19928;-79
2021/06/28 00:43:49;;;;;;;;;;;;;;;21.23;70.79;100117.03;5000901;28;20363;-79
2021/06/28 00:46:17;;;;;;;;;;;;;;;21.17;71.06;100110.13;5001878;28;19922;-79
2021/06/28 00:48:44;;;;;;;;;;;;;;;21.11;71.82;100106.06;5001009;28;19922;-79
2021/06/28 00:51:11;;;;;;;;;;;;;;;21.08;71.06;100102.81;5000547;28;19925;-79
2021/06/28 00:53:38;;;;;;;;;;;;;;;21.02;71.02;100098.72;5000364;28;19929;-79
2021/06/28 00:56:12;;;;;;;;;;;;;;;20.98;70.96;100097.06;5000245;28;19921;-80
2021/06/28 00:58:39;;;;;;;;;;;;;;;20.85;71.53;100100.22;4999927;28;19928;-79
2021/06/28 01:01:08;;;;;;;;;;;;;;;20.77;71.61;100098.53;4999550;28;20000;-81
2021/06/28 01:03:37;;;;;;;;;;;;;;;20.74;71.30;100104.97;5007971;28;19928;-80
2021/06/28 01:06:04;;;;;;;;;;;;;;;20.75;71.27;100102.97;5019543;28;19921;-80
2021/06/28 01:08:31;;;;;;;;;;;;;;;20.58;72.03;100099.59;5015861;28;20510;-80
2021/06/28 01:10:58;;;;;;;;;;;;;;;20.59;71.86;100101.22;5001497;28;19928;-81
2021/06/28 01:13:28;;;;;;;;;;;;;;;20.60;71.99;100094.38;5001685;28;20362;-80
2021/06/28 01:15:55;;;;;;;;;;;;;;;20.62;71.90;100097.63;5002297;28;19928;-79
2021/06/28 01:18:22;;;;;;;;;;;;;;;20.64;71.42;100091.53;5001029;28;19922;-81
2021/06/28 01:20:51;;;;;;;;;;;;;;;20.53;71.61;100099.94;5001622;28;19922;-80
2021/06/28 01:23:21;;;;;;;;;;;;;;;20.44;71.66;100088.13;5000856;28;19922;-79
2021/06/28 01:25:49;;;;;;;;;;;;;;;20.38;72.31;100089.69;4982079;28;20255;-81
2021/06/28 01:28:16;;;;;;;;;;;;;;;20.33;72.60;100087.25;4981783;28;20442;-81
2021/06/28 01:30:43;;;;;;;;;;;;;;;20.28;72.66;100083.56;4981398;28;19922;-79
2021/06/28 01:33:10;;;;;;;;;;;;;;;20.22;72.97;100079.47;4980714;28;19929;-81
2021/06/28 01:35:40;;;;;;;;;;;;;;;20.19;73.07;100080.22;4980615;28;19949;-81
2021/06/28 01:38:07;;;;;;;;;;;;;;;20.16;73.09;100075.38;4993573;28;19925;-81
2021/06/28 01:40:35;;;;;;;;;;;;;;;20.17;73.07;100082.63;5000947;28;20467;-81
2021/06/28 01:43:03;;;;;;;;;;;;;;;20.14;73.16;100083.44;5000835;28;19921;-80
2021/06/28 01:45:30;;;;;;;;;;;;;;;20.12;73.48;100083.00;5011959;28;19921;-80
2021/06/28 01:47:58;;;;;;;;;;;;;;;20.08;73.46;100071.66;5019859;28;19933;-80
2021/06/28 01:50:26;;;;;;;;;;;;;;;20.05;73.77;100082.91;5019716;28;19922;-80
2021/06/28 01:52:53;;;;;;;;;;;;;;;20.10;73.87;100073.28;5013685;28;19922;-80
2021/06/28 01:55:21;;;;;;;;;;;;;;;20.11;73.45;100083.38;4999990;28;19922;-81
2021/06/28 01:57:50;;;;;;;;;;;;;;;20.07;73.95;100077.69;5000836;28;20367;-80
2021/06/28 02:00:19;;;;;;;;;;;;;;;20.05;74.11;100068.78;5000986;28;20271;-81
2021/06/28 02:02:57;;;;;;;;;;;;;;;20.03;74.36;100065.53;5000605;28;19922;-81
2021/06/28 02:05:24;;;;;;;;;;;;;;;20.02;74.19;100063.91;5000126;28;19929;-81
2021/06/28 02:07:51;;;;;;;;;;;;;;;19.94;74.85;100065.03;4999503;28;19981;-80
2021/06/28 02:10:18;;;;;;;;;;;;;;;19.94;74.33;100057.38;5000035;28;19926;-80
2021/06/28 02:12:45;;;;;;;;;;;;;;;19.93;74.18;100061.41;5000390;28;19922;-81
2021/06/28 02:15:19;;;;;;;;;;;;;;;19.91;74.19;100065.81;5001026;28;19926;-80
2021/06/28 02:17:46;;;;;;;;;;;;;;;19.89;73.57;100063.38;5000465;28;19922;-80
2021/06/28 02:20:13;;;;;;;;;;;;;;;19.84;73.75;100069.38;4999602;28;20331;-81
2021/06/28 02:22:40;;;;;;;;;;;;;;;19.74;73.98;100064.41;4999465;28;19945;-81
2021/06/28 02:25:08;;;;;;;;;;;;;;;19.72;73.93;100064.00;5000092;28;19932;-81
2021/06/28 02:27:35;;;;;;;;;;;;;;;19.67;74.22;100059.47;4999677;28;19929;-81
2021/06/28 02:30:05;;;;;;;;;;;;;;;19.63;74.16;100059.47;4999820;28;20335;-79
2021/06/28 02:32:33;;;;;;;;;;;;;;;19.58;74.62;100056.97;4999611;28;20279;-80
2021/06/28 02:35:01;;;;;;;;;;;;;;;19.59;74.65;100063.41;4999537;28;20355;-80
2021/06/28 02:37:28;;;;;;;;;;;;;;;19.56;74.65;100059.34;4999817;28;19926;-80
2021/06/28 02:39:55;;;;;;;;;;;;;;;19.56;74.58;100064.19;4998949;28;20375;-81
2021/06/28 02:42:22;;;;;;;;;;;;;;;19.55;74.37;100054.09;4999328;28;19929;-80
2021/06/28 02:44:49;;;;;;;;;;;;;;;19.54;74.06;100056.09;5005054;28;19921;-81
2021/06/28 02:47:16;;;;;;;;;;;;;;;19.52;74.00;100063.34;5019121;28;19921;-79
2021/06/28 02:49:44;;;;;;;;;;;;;;;19.54;73.60;100066.59;5018567;28;19921;-80
2021/06/28 02:52:11;;;;;;;;;;;;;;;19.50;73.52;100060.09;5018060;28;19929;-80
2021/06/28 02:54:38;;;;;;;;;;;;;;;19.45;73.39;100070.53;5005029;28;19925;-81
2021/06/28 02:57:05;;;;;;;;;;;;;;;19.43;73.48;100069.28;4998665;28;19922;-79
2021/06/28 02:59:34;;;;;;;;;;;;;;;19.33;74.12;100070.78;4999942;28;19921;-79
2021/06/28 03:02:01;;;;;;;;;;;;;;;19.33;74.15;100062.31;4998789;28;20291;-80
2021/06/28 03:04:28;;;;;;;;;;;;;;;19.30;74.16;100063.09;4999180;28;19933;-79
2021/06/28 03:06:56;;;;;;;;;;;;;;;19.28;74.30;100065.47;4997999;28;19921;-80
2021/06/28 03:09:24;;;;;;;;;;;;;;;19.24;74.36;100058.97;4998242;28;19922;-80
2021/06/28 03:11:51;;;;;;;;;;;;;;;19.21;74.37;100060.56;4998029;28;20394;-81
2021/06/28 03:14:18;;;;;;;;;;;;;;;19.21;74.23;100051.25;4998759;28;20271;-80
2021/06/28 03:16:45;;;;;;;;;;;;;;;19.20;73.84;100044.81;4998245;28;19929;-79
2021/06/28 03:19:12;;;;;;;;;;;;;;;19.16;74.15;100052.41;4998360;28;19926;-80
2021/06/28 03:21:42;;;;;;;;;;;;;;;19.09;74.14;100051.50;4998884;28;19925;-80
2021/06/28 03:24:10;;;;;;;;;;;;;;;19.09;74.29;100051.50;4998368;28;19930;-80
2021/06/28 03:26:37;;;;;;;;;;;;;;;19.06;74.28;100055.91;4998587;28;19929;-80
2021/06/28 03:29:04;;;;;;;;;;;;;;;19.05;74.57;100057.09;4998485;28;19909;-79
2021/06/28 03:31:32;;;;;;;;;;;;;;;19.01;74.45;100062.69;4998038;28;19922;-81
2021/06/28 03:33:59;;;;;;;;;;;;;;;19.03;74.49;100071.59;4997925;28;19922;-80
2021/06/28 03:36:28;;;;;;;;;;;;;;;19.05;74.25;100060.75;4998069;28;19922;-81
2021/06/28 03:38:55;;;;;;;;;;;;;;;19.05;74.20;100066.38;4998288;28;19929;-81
2021/06/28 03:41:24;;;;;;;;;;;;;;;19.05;73.69;100060.75;4997065;28;19944;-81
2021/06/28 03:43:51;;;;;;;;;;;;;;;19.06;73.42;100065.16;4998309;28;19922;-79
2021/06/28 03:46:18;;;;;;;;;;;;;;;19.03;73.63;100065.94;5015679;28;20099;-80
2021/06/28 03:48:45;;;;;;;;;;;;;;;18.99;73.91;100059.44;5009953;28;19994;-80
2021/06/28 03:51:12;;;;;;;;;;;;;;;18.99;73.82;100059.44;4996817;28;19921;-81
2021/06/28 03:53:39;;;;;;;;;;;;;;;19.00;74.03;100055.44;4996938;28;19922;-80
2021/06/28 03:56:09;;;;;;;;;;;;;;;19.01;73.99;100065.53;4997714;28;19929;-80
2021/06/28 03:58:38;;;;;;;;;;;;;;;19.01;73.67;100068.34;4997333;28;19921;-80
2021/06/28 04:01:06;;;;;;;;;;;;;;;19.01;73.71;100067.53;4997419;28;19929;-79
2021/06/28 04:03:35;;;;;;;;;;;;;;;19.01;73.43;100068.34;4996921;28;19922;-80
2021/06/28 04:06:04;;;;;;;;;;;;;;;19.07;73.19;100074.47;4996779;28;20249;-80
2021/06/28 04:08:31;;;;;;;;;;;;;;;19.06;73.44;100073.66;4978369;28;19922;-80
2021/06/28 04:10:58;;;;;;;;;;;;;;;19.18;72.92;100066.16;4978668;28;19933;-79
2021/06/28 04:13:25;;;;;;;;;;;;;;;19.26;72.94;100065.06;4978322;28;19926;-80
2021/06/28 04:15:54;;;;;;;;;;;;;;;19.33;72.86;100067.97;4979560;28;19922;-80
2021/06/28 04:18:21;;;;;;;;;;;;;;;19.37;72.66;100077.28;4978185;28;19926;-80
2021/06/28 04:20:48;;;;;;;;;;;;;;;19.46;72.78;100071.34;4978358;28;19929;-80
2021/06/28 04:23:15;;;;;;;;;;;;;;;19.53;72.23;100074.28;4997846;28;19922;-80
2021/06/28 04:25:42;;;;;;;;;;;;;;;19.59;72.39;100063.41;4998398;28;19922;-80
2021/06/28 04:28:09;;;;;;;;;;;;;;;19.64;72.13;100066.72;4997566;28;19928;-80
2021/06/28 04:30:36;;;;;;;;;;;;;;;19.71;71.95;100053.91;4998085;28;19922;-80
2021/06/28 04:33:05;;;;;;;;;;;;;;;19.77;72.16;100060.84;4998872;28;19929;-80
2021/06/28 04:35:32;;;;;;;;;;;;;;;19.73;72.51;100052.31;4998514;28;19906;-80
2021/06/28 04:38:00;;;;;;;;;;;;;;;19.84;72.45;100064.56;4997583;28;19922;-81
2021/06/28 04:40:28;;;;;;;;;;;;;;;19.89;72.60;100074.69;4998754;28;19929;-80
2021/06/28 04:42:55;;;;;;;;;;;;;;;19.97;72.60;100073.56;4998687;28;19921;-80
2021/06/28 04:45:23;;;;;;;;;;;;;;;20.08;72.06;100068.03;5011808;28;19922;-81
2021/06/28 04:47:50;;;;;;;;;;;;;;;20.08;72.24;100070.84;5017581;28;19929;-79
2021/06/28 04:50:23;;;;;;;;;;;;;;;20.10;72.11;100085.41;5001439;28;20397;-80
2021/06/28 04:52:51;;;;;;;;;;;;;;;20.19;71.67;100085.09;5001751;28;19921;-81
2021/06/28 04:55:18;;;;;;;;;;;;;;;20.25;71.52;100072.22;5001278;28;19921;-81
2021/06/28 04:57:46;;;;;;;;;;;;;;;20.29;71.48;100078.72;5001399;28;20237;-81
2021/06/28 05:00:14;;;;;;;;;;;;;;;20.33;71.34;100082.38;5002719;28;19922;-80
2021/06/28 05:02:41;;;;;;;;;;;;;;;20.39;71.32;100080.00;5001161;28;19925;-80
2021/06/28 05:05:09;;;;;;;;;;;;;;;20.36;71.57;100078.78;5001079;28;20357;-80
2021/06/28 05:07:37;;;;;;;;;;;;;;;20.51;71.02;100078.91;5000883;28;20016;-80
2021/06/28 05:10:05;;;;;;;;;;;;;;;20.56;70.74;100070.88;5001106;28;19922;-80
2021/06/28 05:12:32;;;;;;;;;;;;;;;20.65;70.71;100079.84;4998158;28;19922;-79
2021/06/28 05:14:59;;;;;;;;;;;;;;;20.78;70.32;100066.19;4998923;28;19925;-80
2021/06/28 05:17:26;;;;;;;;;;;;;;;20.87;70.13;100066.66;4996281;28;19922;-79
2021/06/28 05:19:53;;;;;;;;;;;;;;;20.90;70.22;100061.44;5000596;28;19928;-79
2021/06/28 05:22:20;;;;;;;;;;;;;;;21.05;69.82;100057.47;5000406;28;19933;-80
2021/06/28 05:24:48;;;;;;;;;;;;;;;21.18;69.69;100067.22;5000106;28;19921;-79
2021/06/28 05:27:15;;;;;;;;;;;;;;;21.23;69.68;100061.19;5000580;28;20382;-80
2021/06/28 05:29:42;;;;;;;;;;;;;;;21.35;69.23;100050.72;5000006;28;19922;-79
2021/06/28 05:32:09;;;;;;;;;;;;;;;21.32;69.39;100055.16;4999893;28;19921;-80
2021/06/28 05:34:36;;;;;;;;;;;;;;;21.41;69.18;100051.97;5000516;28;19929;-80
2021/06/28 05:37:04;;;;;;;;;;;;;;;21.45;69.00;100053.63;5000028;28;19929;-80
2021/06/28 05:39:31;;;;;;;;;;;;;;;21.58;68.93;100050.44;4999661;28;20023;-79
2021/06/28 05:41:59;;;;;;;;;;;;;;;21.62;68.84;100039.91;5002260;28;19929;-80
2021/06/28 05:44:26;;;;;;;;;;;;;;;21.77;68.67;100047.22;4985168;28;19922;-80
2021/06/28 05:46:53;;;;;;;;;;;;;;;21.87;68.71;100042.81;4986654;28;19921;-81
2021/06/28 05:49:21;;;;;;;;;;;;;;;21.91;68.79;100043.63;4993523;28;19929;-79
2021/06/28 05:51:48;;;;;;;;;;;;;;;22.10;67.95;100031.09;4993509;28;19922;-76
2021/06/28 05:54:15;;;;;;;;;;;;;;;22.23;67.70;100034.38;4994762;28;19929;-75
2021/06/28 05:56:42;;;;;;;;;;;;;;;22.45;66.97;100035.19;4994440;28;20386;-75
2021/06/28 05:59:10;;;;;;;;;;;;;;;21.93;68.54;100031.91;4994651;28;20347;-75
2021/06/28 06:01:38;;;;;;;;;;;;;;;22.54;67.09;100032.72;4994824;28;20267;-75
2021/06/28 06:04:07;;;;;;;;;;;;;;;22.79;66.35;100026.22;4994774;28;19922;-75
2021/06/28 06:06:34;;;;;;;;;;;;;;;22.98;66.01;100034.28;4996911;28;19929;-82
2021/06/28 06:09:01;;;;;;;;;;;;;;;23.26;64.57;100030.53;4995707;28;19922;-79
2021/06/28 06:11:28;;;;;;;;;;;;;;;23.47;63.55;100028.84;4994438;28;19922;-78
2021/06/28 06:13:55;;;;;;;;;;;;;;;23.59;62.43;100024.72;4999085;28;20355;-77
2021/06/28 06:16:25;;;;;;;;;;;;;;;23.62;61.42;100018.19;4998820;28;19925;-79
2021/06/28 06:18:52;;;;;;;;;;;;;;;23.75;61.18;100027.06;4996492;28;20322;-78
2021/06/28 06:21:20;;;;;;;;;;;;;;;23.91;60.31;100022.50;4998899;28;19921;-78
2021/06/28 06:23:47;;;;;;;;;;;;;;;24.02;60.38;100019.59;4986214;28;19922;-78
2021/06/28 06:26:15;;;;;;;;;;;;;;;24.09;60.35;100016.69;4998509;28;19929;-78
2021/06/28 06:28:42;;;;;;;;;;;;;;;24.14;60.91;100018.28;4999756;28;19928;-82
2021/06/28 06:31:09;;;;;;;;;;;;;;;24.22;61.77;100019.84;5000410;28;20406;-83
2021/06/28 06:33:38;;;;;;;;;;;;;;;24.37;61.35;100029.06;5001483;28;19922;-81
2021/06/28 06:36:05;;;;;;;;;;;;;;;24.44;60.70;100031.03;5000987;28;19922;-80
2021/06/28 06:38:32;;;;;;;;;;;;;;;24.56;60.52;100038.28;5000793;28;19922;-82
2021/06/28 06:40:59;;;;;;;;;;;;;;;24.69;60.55;100045.06;5000142;28;19921;-80
2021/06/28 06:43:26;;;;;;;;;;;;;;;24.73;60.22;100036.50;4998131;28;19929;-80
2021/06/28 06:45:53;;;;;;;;;;;;;;;24.77;59.89;100038.06;4999433;28;19922;-80
2021/06/28 06:48:20;;;;;;;;;;;;;;;24.96;59.03;100042.34;4998382;28;20390;-79
2021/06/28 06:50:48;;;;;;;;;;;;;;;25.05;58.67;100034.13;4998220;28;19922;-81
2021/06/28 06:53:16;;;;;;;;;;;;;;;25.25;58.85;100039.22;4997548;28;19921;-80
2021/06/28 06:55:43;;;;;;;;;;;;;;;25.43;58.15;100056.91;4998772;28;19922;-79
2021/06/28 06:58:10;;;;;;;;;;;;;;;25.75;57.18;100052.00;4999078;28;19921;-79
2021/06/28 07:00:41;;;;;;;;;;;;;;;26.00;57.20;100054.53;4997419;28;19925;-80
2021/06/28 07:03:08;;;;;;;;;;;;;;;26.35;55.93;100053.13;4992364;28;19929;-79
2021/06/28 07:05:36;;;;;;;;;;;;;;;26.60;53.25;100064.16;4997793;28;19921;-79
2021/06/28 07:08:05;;;;;;;;;;;;;;;27.01;53.31;100057.31;4999487;28;20367;-80
2021/06/28 07:10:32;;;;;;;;;;;;;;;27.43;53.26;100056.94;4996193;28;19928;-80
2021/06/28 07:13:01;;;;;;;;;;;;;;;27.67;51.90;100051.91;4999466;28;19929;-80
2021/06/28 07:15:28;;;;;;;;;;;;;;;27.90;51.44;100051.00;4998197;28;19933;-80
2021/06/28 07:17:55;;;;;;;;;;;;;;;28.03;49.97;100060.50;4998472;28;19922;-80
2021/06/28 07:20:23;;;;;;;;;;;;;;;28.15;49.21;100056.16;4997058;28;20268;-79
2021/06/28 07:22:51;;;;;;;;;;;;;;;28.37;49.53;100065.03;4997580;28;19922;-79
2021/06/28 07:25:20;;;;;;;;;;;;;;;28.65;49.87;100060.66;4996685;28;19929;-79
2021/06/28 07:27:47;;;;;;;;;;;;;;;28.92;49.41;100056.69;4991704;28;20383;-79
2021/06/28 07:30:16;;;;;;;;;;;;;;;28.90;49.95;100059.19;4995683;28;20024;-79
2021/06/28 07:32:43;;;;;;;;;;;;;;;29.07;49.71;100057.88;4994245;28;19921;-79
2021/06/28 07:35:11;;;;;;;;;;;;;;;29.02;49.85;100055.56;4993934;28;19928;-79
2021/06/28 07:37:39;;;;;;;;;;;;;;;29.10;49.54;100054.13;4994248;28;20302;-79
2021/06/28 07:40:07;;;;;;;;;;;;;;;29.07;49.23;100062.81;4995075;28;19926;-78
2021/06/28 07:42:36;;;;;;;;;;;;;;;29.49;49.53;100060.00;4992183;28;19921;-78
2021/06/28 07:45:03;;;;;;;;;;;;;;;29.72;48.10;100059.72;4993564;28;19992;-80
2021/06/28 07:47:30;;;;;;;;;;;;;;;29.94;48.01;100050.44;4990112;28;19928;-79
2021/06/28 07:49:58;;;;;;;;;;;;;;;30.15;46.80;100057.56;4995212;28;19922;-79
2021/06/28 07:52:25;;;;;;;;;;;;;;;30.39;47.01;100057.25;4995158;28;19925;-79
2021/06/28 07:54:52;;;;;;;;;;;;;;;30.53;46.34;100053.88;4996800;28;19933;-79
2021/06/28 07:57:19;;;;;;;;;;;;;;;30.71;45.97;100056.94;4994505;28;20382;-78
2021/06/28 07:59:48;;;;;;;;;;;;;;;31.14;45.18;100051.75;4995107;28;20363;-80
2021/06/28 08:02:15;;;;;;;;;;;;;;;32.19;42.57;100040.72;4996950;28;20275;-80
2021/06/28 08:04:45;;;;;;;;;;;;;;;32.90;41.30;100036.91;4997110;28;19933;-81
2021/06/28 08:07:12;;;;;;;;;;;;;;;33.32;40.20;100027.59;4996394;28;19930;-80
2021/06/28 08:09:39;;;;;;;;;;;;;;;33.10;40.14;100027.00;4998123;28;19929;-79
2021/06/28 08:12:06;;;;;;;;;;;;;;;32.89;40.16;100023.78;4994396;28;19928;-80
2021/06/28 08:14:33;;;;;;;;;;;;;;;32.48;40.76;100030.91;4998320;28;19921;-80
2021/06/28 08:17:02;;;;;;;;;;;;;;;32.65;41.14;100017.81;4997683;28;19928;-80
2021/06/28 08:19:29;;;;;;;;;;;;;;;32.36;41.20;100021.91;5000191;28;19937;-81
2021/06/28 08:21:56;;;;;;;;;;;;;;;32.20;42.24;100016.41;4999920;28;20383;-81
2021/06/28 08:24:24;;;;;;;;;;;;;;;32.16;42.87;100015.75;5000973;28;19922;-80
2021/06/28 08:26:51;;;;;;;;;;;;;;;31.94;42.40;100022.38;4999937;28;19921;-81
2021/06/28 08:29:19;;;;;;;;;;;;;;;31.80;42.63;100020.06;5001605;28;19921;-81
2021/06/28 08:31:46;;;;;;;;;;;;;;;31.50;43.43;100024.56;5002141;28;19945;-81
2021/06/28 08:34:15;;;;;;;;;;;;;;;31.42;43.60;100018.25;5000484;28;20321;-80
2021/06/28 08:36:44;;;;;;;;;;;;;;;31.11;44.58;100027.59;5001610;28;19929;-80
2021/06/28 08:39:11;;;;;;;;;;;;;;;31.21;43.76;100024.81;5000788;28;19929;-80
2021/06/28 08:41:42;;;;;;;;;;;;;;;31.19;42.62;100027.34;4994836;28;20393;-81
2021/06/28 08:44:09;;;;;;;;;;;;;;;31.01;43.20;100028.00;4998931;28;20359;-81
2021/06/28 08:46:37;;;;;;;;;;;;;;;31.33;43.06;100021.88;5000471;28;19921;-79
2021/06/28 08:49:04;;;;;;;;;;;;;;;31.60;40.76;100013.88;4995772;28;19922;-79
2021/06/28 08:51:32;;;;;;;;;;;;;;;33.26;38.92;100012.22;4999368;28;19926;-80
2021/06/28 08:54:03;;;;;;;;;;;;;;;35.17;36.16;100018.88;5000254;28;19929;-81
2021/06/28 08:56:30;;;;;;;;;;;;;;;36.27;33.58;100004.44;5001529;28;19929;-80
2021/06/28 08:58:58;;;;;;;;;;;;;;;37.91;31.64;100020.84;4999815;28;19925;-79
2021/06/28 09:01:25;;;;;;;;;;;;;;;38.81;29.39;100011.88;4999874;28;19925;-80
2021/06/28 09:03:52;;;;;;;;;;;;;;;40.01;27.93;100023.28;4997316;28;19926;-81
2021/06/28 09:06:24;;;;;;;;;;;;;;;40.64;26.55;100028.47;5001750;28;19929;-79
2021/06/28 09:09:07;;;;;;;;;;;;;;;41.55;24.21;100026.66;4998470;28;19921;-81
2021/06/28 09:11:35;;;;;;;;;;;;;;;42.92;23.26;100024.03;5000224;28;19922;-81
2021/06/28 09:14:04;;;;;;;;;;;;;;;43.08;22.54;100028.09;4999872;28;19929;-80
2021/06/28 09:16:32;;;;;;;;;;;;;;;44.01;22.45;100019.72;4999251;28;19922;-79
2021/06/28 09:19:01;;;;;;;;;;;;;;;44.75;20.81;100033.78;4999057;28;19921;-80
2021/06/28 09:21:30;;;;;;;;;;;;;;;45.36;19.54;100030.88;4999175;28;19929;-81
2021/06/28 09:24:00;;;;;;;;;;;;;;;46.42;18.81;100017.78;4999439;28;19926;-78
2021/06/28 09:26:32;;;;;;;;;;;;;;;45.30;20.29;100024.34;4999120;28;19929;-80
2021/06/28 09:29:00;;;;;;;;;;;;;;;43.69;21.51;100014.66;4999029;28;20413;-82
2021/06/28 09:31:39;;;;;;;;;;;;;;;42.38;22.50;100014.78;4995273;28;19922;-83
2021/06/28 09:34:10;;;;;;;;;;;;;;;41.94;22.97;100019.75;5002895;28;19921;-83
2021/06/28 09:36:49;;;;;;;;;;;;;;;40.97;24.71;100035.50;4995715;28;20371;-77
2021/06/28 09:39:18;;;;;;;;;;;;;;;40.93;24.18;100044.56;4995902;28;19922;-76
2021/06/28 09:41:45;;;;;;;;;;;;;;;40.20;23.70;100052.69;4993924;28;19921;-82
2021/06/28 09:44:15;;;;;;;;;;;;;;;39.09;25.01;100044.84;4996152;28;19922;-80
2021/06/28 09:46:42;;;;;;;;;;;;;;;39.32;24.87;100042.78;4999885;28;19933;-80
2021/06/28 09:49:14;;;;;;;;;;;;;;;39.36;24.30;100042.53;4986589;28;20315;-80
2021/06/28 09:52:52;;;;;;;6.40;4.45;;;;;;;39.77;24.76;100030.41;5040780;28;20139;-63
2021/06/28 09:55:22;;;;;;;4.72;3.97;;;;;;;39.81;24.92;100024.31;5048441;28;20053;-63
2021/06/28 09:58:25;;;;;;;4.53;4.20;;;;;;;40.46;22.28;100026.13;5053615;28;20538;-63
2021/06/28 10:00:55;;;;;;;4.47;4.07;;;;;;;41.28;21.06;100018.91;5008051;28;20046;-63
2021/06/28 10:03:28;;;;;;;4.93;4.50;;;;;;;42.31;19.24;100012.47;5044048;28;20053;-62
2021/06/28 10:06:04;;;;;;;4.60;4.15;;;;;;;43.58;17.74;100012.69;5049340;28;20053;-63
2021/06/28 10:08:34;;;;;;;3.72;3.42;;;;;;;44.29;17.52;100013.34;5048995;28;20065;-63
2021/06/28 10:11:13;;;;;;;4.50;3.90;;;;;;;44.40;17.46;100008.63;5048264;28;20053;-63
2021/06/28 10:13:41;;;;;;;5.05;3.75;;;;;;;45.50;16.07;100008.09;5048255;28;20053;-63
2021/06/28 10:16:09;;;;;;;4.18;3.88;;;;;;;46.90;14.72;100008.63;5048088;28;20060;-63
2021/06/28 10:18:38;;;;;;;4.00;3.70;;;;;;;47.90;14.24;100003.81;5047527;28;20060;-64
2021/06/28 10:21:08;;;;;;;4.10;3.80;;;;;;;48.24;13.65;99998.84;5047516;28;20044;-64
2021/06/28 10:23:37;;;;;;;3.58;3.38;;;;;;;48.21;13.14;99997.84;5047943;28;20060;-64
2021/06/28 10:26:05;;;;;;;3.53;3.22;;;;;;;47.80;13.35;100005.75;5053477;28;20047;-64
2021/06/28 10:28:35;;;;;;;3.75;3.45;;;;;;;47.52;13.43;100003.72;5047068;28;20498;-64
2021/06/28 10:31:02;;;;;;;4.15;3.30;;;;;;;48.45;13.45;99999.44;5053274;28;20053;-64
2021/06/28 10:33:29;;;;;;;;;;;;;;;47.09;13.43;100003.19;5047870;28;20084;-64
2021/06/28 10:36:00;;;;;;;;;;;;;;;47.14;13.73;99995.53;5053257;28;19920;-64
2021/06/28 10:38:45;;;;;;;3.35;3.05;;;;;;;47.06;13.85;100004.34;5047333;28;19924;-64
2021/06/28 10:41:12;;;;;;;3.47;3.25;;;;;;;46.57;14.27;99999.41;5044064;28;20393;-64
2021/06/28 10:43:40;;;;;;;;;;;;;;;46.71;14.68;100003.03;5047840;28;20049;-64
2021/06/28 10:46:08;;;;;;;;;;;;;;;46.71;14.34;100003.78;5047680;28;19932;-64
2021/06/28 10:48:46;;;;;;;3.92;3.53;;;;;;;43.96;16.20;100000.06;5047361;28;20370;-63
2021/06/28 10:51:14;;;;;;;3.42;3.13;;;;;;;42.60;17.70;99988.75;5046182;28;20474;-64
2021/06/28 10:54:17;;;;;;;4.70;3.63;;;;;;;41.13;18.88;99979.09;5046889;28;20056;-63
2021/06/28 10:56:55;;;;;;;4.97;3.50;;;;;;;39.79;20.61;99986.94;5045913;28;20049;-63
2021/06/28 10:59:29;;;;;;;3.78;3.47;;;;;;;38.27;22.19;99981.44;5046510;28;20057;-63
2021/06/28 11:02:01;;;;;;;4.13;3.83;;;;;;;37.18;24.19;99986.84;5045963;28;20053;-63
2021/06/28 11:04:30;;;;;;;3.90;3.60;;;;;;;36.15;25.93;99983.16;5033206;28;20503;-63
2021/06/28 11:07:15;;;;;;;4.25;3.85;;;;;;;36.00;25.98;99982.38;5032511;28;20061;-63
2021/06/28 11:09:52;;;;;;;4.50;4.10;;;;;;;35.73;27.60;99986.44;5027244;28;20053;-62
2021/06/28 11:12:31;;;;;;;4.38;4.00;;;;;;;35.73;28.80;99980.63;5032626;28;20053;-63
2021/06/28 11:15:00;;;;;;;5.90;4.35;;;;;;;35.73;27.82;99980.63;5030023;28;20060;-62
2021/06/28 11:17:43;;;;;;;4.85;4.35;;;;;;;35.27;27.95;99978.22;5032829;28;20068;-63
2021/06/28 11:20:21;;;;;;;4.32;3.92;;;;;;;36.09;27.37;99966.97;5032462;28;20060;-63
2021/06/28 11:22:52;;;;;;;4.15;3.72;;;;;;;36.24;27.55;99972.72;5026194;28;20045;-62
2021/06/28 11:25:23;;;;;;;4.72;4.28;;;;;;;36.38;27.11;99969.75;5029238;28;20394;-62
2021/06/28 11:28:25;;;;;;;4.97;4.55;;;;;;;36.29;26.91;99960.44;5030613;28;20060;-62
2021/06/28 11:31:02;;;;;;;5.07;4.57;;;;;;;36.68;26.81;99963.84;5027654;28;20045;-62
2021/06/28 11:33:44;;;;;;;4.80;4.40;;;;;;;36.85;26.96;99957.44;5032387;28;20403;-62
2021/06/28 11:36:40;;;;;;;5.82;4.40;;;;;;;36.69;27.27;99950.94;5031033;28;20049;-62
2021/06/28 11:39:29;;;;;;;5.18;4.78;;;;;;;35.94;27.63;99950.41;5031285;28;20057;-62
2021/06/28 11:42:33;;;;;;;5.05;4.65;;;;;;;35.45;28.77;99943.28;5023746;28;20411;-62
2021/06/28 11:45:06;;;;;;;3.40;3.10;;;;;;;35.36;27.01;99938.41;5021643;28;20469;-61
2021/06/28 11:48:11;;;;;;;3.75;3.35;;;;;;;34.90;28.09;99941.75;5031363;28;20510;-61
2021/06/28 11:50:40;;;;;;;4.78;4.30;;;;;;;36.99;25.98;99942.03;5029258;28;20057;-62
2021/06/28 11:53:10;;;;;;;4.18;3.88;;;;;;;38.21;24.24;99939.88;5028980;28;20383;-61
2021/06/28 11:55:39;;;;;;;3.75;3.45;;;;;;;38.48;22.70;99937.66;5024917;28;20057;-62
2021/06/28 11:58:07;;;;;;;4.40;3.50;;;;;;;39.67;21.72;99938.69;5033636;28;20068;-62
2021/06/28 12:00:36;;;;;;;4.00;3.70;;;;;;;39.93;21.45;99942.13;5025008;28;20486;-63
2021/06/28 12:03:11;;;;;;;4.22;2.70;;;;;;;39.71;20.98;99940.03;5040633;28;20418;-63
2021/06/28 12:05:38;;;;;;;2.85;2.55;;;;;;;37.36;22.88;99933.44;5031880;28;20442;-63
2021/06/28 12:08:06;;;;;;;3.22;2.90;;;;;;;36.89;23.22;99928.97;5027988;28;20053;-63
2021/06/28 12:10:34;;;;;;;3.40;3.10;;;;;;;36.66;24.05;99940.34;5026726;28;20414;-63
2021/06/28 12:13:01;;;;;;;3.42;2.80;;;;;;;36.47;24.44;99939.81;5030338;28;20054;-63
2021/06/28 12:15:30;;;;;;;3.45;2.90;;;;;;;35.94;25.06;99938.00;5026818;28;20825;-62
2021/06/28 12:18:05;;;;;;;3.58;3.20;;;;;;;35.88;25.19;99949.50;5031854;28;20057;-62
2021/06/28 12:20:35;;;;;;;3.92;3.10;;;;;;;35.87;25.83;99942.13;5031666;28;20064;-62
2021/06/28 12:23:09;;;;;;;3.50;2.70;;;;;;;36.12;25.63;99948.53;5027880;28;20064;-62
2021/06/28 12:25:40;;;;;;;5.50;3.10;;;;;;;35.98;26.19;99939.41;5029995;28;20410;-63
2021/06/28 12:28:07;;;;;;;6.35;2.45;;;;;;;36.40;25.38;99940.25;5030822;28;20057;-62
2021/06/28 12:30:37;;;;;;;3.78;2.53;;;;;;;36.75;24.56;99943.09;5029460;28;20539;-62
2021/06/28 12:33:09;;;;;;;2.70;2.50;;;;;;;37.08;23.09;99941.84;5030940;28;20478;-63
2021/06/28 12:35:36;;;;;;;3.33;2.40;;;;;;;36.89;23.60;99955.09;5030642;28;20061;-62